NCAR-RAP Real-Time Weather Data

Output produced by METARs form (19 November 2018  11:22 UTC)
found at http://weather.rap.ucar.edu/surface/
 
Conditions at: KCGC observed 19 November 2018  11:15 UTC
Temperature: 15.0°C (59°F)
Dewpoint: 15.0°C (59°F) [RH = 100%]
Pressure (altimeter): 30.12 inches Hg (1020.1 mb)
Winds: calm
Visibility: 10 or more miles (16+ km)
Ceiling: 200 feet AGL
Clouds: broken clouds at 200 feet AGL
overcast cloud deck at 7000 feet AGL
Present Weather: automated observation with no human augmentation;
there may or may not be significant weather present at this time
KCGC 191115Z AUTO 00000KT 10SM BKN002 OVC070 15/15 A3012 RMK AO2

Conditions at: KCGC observed 19 November 2018  10:55 UTC
Temperature: 15.0°C (59°F)
Dewpoint: 15.0°C (59°F) [RH = 100%]
Pressure (altimeter): 30.12 inches Hg (1020.1 mb)
Winds: calm
Visibility: 10 or more miles (16+ km)
Ceiling: 7000 feet AGL
Clouds: scattered clouds at 200 feet AGL
broken clouds at 7000 feet AGL
overcast cloud deck at 8500 feet AGL
Present Weather: automated observation with no human augmentation;
there may or may not be significant weather present at this time
KCGC 191055Z AUTO 00000KT 10SM SCT002 BKN070 OVC085 15/15 A3012 RMK AO2

Conditions at: KCGC observed 19 November 2018  10:35 UTC
Temperature: 15.0°C (59°F)
Dewpoint: 15.0°C (59°F) [RH = 100%]
Pressure (altimeter): 30.12 inches Hg (1020.1 mb)
Winds: calm
Visibility: 10 or more miles (16+ km)
Ceiling: 8500 feet AGL
Clouds: scattered clouds at 100 feet AGL
scattered clouds at 7000 feet AGL
overcast cloud deck at 8500 feet AGL
Present Weather: automated observation with no human augmentation;
there may or may not be significant weather present at this time
KCGC 191035Z AUTO 00000KT 10SM SCT001 SCT070 OVC085 15/15 A3012 RMK AO2

Conditions at: KCGC observed 19 November 2018  10:15 UTC
Temperature: 15.0°C (59°F)
Dewpoint: 14.0°C (57°F) [RH = 94%]
Pressure (altimeter): 30.11 inches Hg (1019.7 mb)
Winds: calm
Visibility: 5 miles (8 km)
Ceiling: 100 feet AGL
Clouds: broken clouds at 100 feet AGL
overcast cloud deck at 8500 feet AGL
Present Weather: BR  (mist)
KCGC 191015Z AUTO 00000KT 5SM BR BKN001 OVC085 15/14 A3011 RMK AO2

Conditions at: KCGC observed 19 November 2018  09:55 UTC
Temperature: 15.0°C (59°F)
Dewpoint: 15.0°C (59°F) [RH = 100%]
Pressure (altimeter): 30.10 inches Hg (1019.4 mb)
Winds: calm
Visibility: 4 miles (6 km)
Ceiling: 100 feet AGL
Clouds: overcast cloud deck at 100 feet AGL
Present Weather: BR  (mist)
KCGC 190955Z AUTO 00000KT 4SM BR OVC001 15/15 A3010 RMK AO2

Conditions at: KCGC observed 19 November 2018  09:35 UTC
Temperature: 15.0°C (59°F)
Dewpoint: 14.0°C (57°F) [RH = 94%]
Pressure (altimeter): 30.10 inches Hg (1019.4 mb)
Winds: calm
Visibility: 4 miles (6 km)
Ceiling: 300 feet AGL
Clouds: overcast cloud deck at 300 feet AGL
Present Weather: BR  (mist)
KCGC 190935Z AUTO 00000KT 4SM BR OVC003 15/14 A3010 RMK AO2

Conditions at: KCGC observed 19 November 2018  09:15 UTC
Temperature: 15.0°C (59°F)
Dewpoint: 14.0°C (57°F) [RH = 94%]
Pressure (altimeter): 30.10 inches Hg (1019.4 mb)
Winds: calm
Visibility: 7 miles (11 km)
Ceiling: 300 feet AGL
Clouds: broken clouds at 300 feet AGL
broken clouds at 6500 feet AGL
overcast cloud deck at 8000 feet AGL
Present Weather: automated observation with no human augmentation;
there may or may not be significant weather present at this time
KCGC 190915Z AUTO 00000KT 7SM BKN003 BKN065 OVC080 15/14 A3010 RMK AO2

Conditions at: KCGC observed 19 November 2018  08:55 UTC
Temperature: 14.0°C (57°F)
Dewpoint: 14.0°C (57°F) [RH = 100%]
Pressure (altimeter): 30.10 inches Hg (1019.4 mb)
Winds: calm
Visibility: 10 or more miles (16+ km)
Ceiling: 300 feet AGL
Clouds: broken clouds at 300 feet AGL
overcast cloud deck at 6500 feet AGL
Present Weather: automated observation with no human augmentation;
there may or may not be significant weather present at this time
KCGC 190855Z AUTO 00000KT 10SM BKN003 OVC065 14/14 A3010 RMK AO2

Conditions at: KCGC observed 19 November 2018  08:35 UTC
Temperature: 15.0°C (59°F)
Dewpoint: 14.0°C (57°F) [RH = 94%]
Pressure (altimeter): 30.10 inches Hg (1019.4 mb)
Winds: calm
Visibility: 10 or more miles (16+ km)
Ceiling: 300 feet AGL
Clouds: broken clouds at 300 feet AGL
broken clouds at 8000 feet AGL
Present Weather: automated observation with no human augmentation;
there may or may not be significant weather present at this time
KCGC 190835Z AUTO 00000KT 10SM BKN003 BKN080 15/14 A3010 RMK AO2

Conditions at: KCGC observed 19 November 2018  08:15 UTC
Temperature: 14.0°C (57°F)
Dewpoint: 13.0°C (55°F) [RH = 94%]
Pressure (altimeter): 30.11 inches Hg (1019.7 mb)
Winds: calm
Visibility: 10 or more miles (16+ km)
Ceiling: 8000 feet AGL
Clouds: scattered clouds at 300 feet AGL
scattered clouds at 6000 feet AGL
broken clouds at 8000 feet AGL
Present Weather: automated observation with no human augmentation;
there may or may not be significant weather present at this time
KCGC 190815Z AUTO 00000KT 10SM SCT003 SCT060 BKN080 14/13 A3011 RMK AO2

Conditions at: KCGC observed 19 November 2018  07:55 UTC
Temperature: 15.0°C (59°F)
Dewpoint: 14.0°C (57°F) [RH = 94%]
Pressure (altimeter): 30.11 inches Hg (1019.7 mb)
Winds: calm
Visibility: 10 or more miles (16+ km)
Ceiling: 6000 feet AGL
Clouds: overcast cloud deck at 6000 feet AGL
Present Weather: automated observation with no human augmentation;
there may or may not be significant weather present at this time
KCGC 190755Z AUTO 00000KT 10SM OVC060 15/14 A3011 RMK AO2

Conditions at: KCGC observed 19 November 2018  07:35 UTC
Temperature: 14.0°C (57°F)
Dewpoint: 13.0°C (55°F) [RH = 94%]
Pressure (altimeter): 30.11 inches Hg (1019.7 mb)
Winds: calm
Visibility: 10 or more miles (16+ km)
Ceiling: 7500 feet AGL
Clouds: scattered clouds at 6000 feet AGL
broken clouds at 7500 feet AGL
Present Weather: automated observation with no human augmentation;
there may or may not be significant weather present at this time
KCGC 190735Z AUTO 00000KT 10SM SCT060 BKN075 14/13 A3011 RMK AO2

Conditions at: KCGC observed 19 November 2018  07:15 UTC
Temperature: 14.0°C (57°F)
Dewpoint: 13.0°C (55°F) [RH = 94%]
Pressure (altimeter): 30.11 inches Hg (1019.7 mb)
Winds: calm
Visibility: 10 or more miles (16+ km)
Ceiling: at least 12,000 feet AGL
Clouds: scattered clouds at 6000 feet AGL
scattered clouds at 7500 feet AGL
Present Weather: automated observation with no human augmentation;
there may or may not be significant weather present at this time
KCGC 190715Z AUTO 00000KT 10SM SCT060 SCT075 14/13 A3011 RMK AO2

Conditions at: KCGC observed 19 November 2018  06:55 UTC
Temperature: 14.0°C (57°F)
Dewpoint: 13.0°C (55°F) [RH = 94%]
Pressure (altimeter): 30.11 inches Hg (1019.7 mb)
Winds: calm
Visibility: 10 or more miles (16+ km)
Ceiling: at least 12,000 feet AGL
Clouds: scattered clouds at 7500 feet AGL
Present Weather: automated observation with no human augmentation;
there may or may not be significant weather present at this time
KCGC 190655Z AUTO 00000KT 10SM SCT075 14/13 A3011 RMK AO2

Conditions at: KCGC observed 19 November 2018  06:35 UTC
Temperature: 13.0°C (55°F)
Dewpoint: 13.0°C (55°F) [RH = 100%]
Pressure (altimeter): 30.10 inches Hg (1019.4 mb)
Winds: calm
Visibility: 10 or more miles (16+ km)
Ceiling: at least 12,000 feet AGL
Clouds: sky clear below 12,000 feet AGL
Present Weather: automated observation with no human augmentation;
there may or may not be significant weather present at this time
KCGC 190635Z AUTO 00000KT 10SM CLR 13/13 A3010 RMK AO2

Conditions at: KCGC observed 19 November 2018  06:15 UTC
Temperature: 14.0°C (57°F)
Dewpoint: 13.0°C (55°F) [RH = 94%]
Pressure (altimeter): 30.11 inches Hg (1019.7 mb)
Winds: calm
Visibility: 10 or more miles (16+ km)
Ceiling: at least 12,000 feet AGL
Clouds: sky clear below 12,000 feet AGL
Present Weather: automated observation with no human augmentation;
there may or may not be significant weather present at this time
KCGC 190615Z AUTO 00000KT 10SM CLR 14/13 A3011 RMK AO2

Conditions at: KCGC observed 19 November 2018  05:55 UTC
Temperature: 15.0°C (59°F)
Dewpoint: 13.0°C (55°F) [RH = 88%]
Pressure (altimeter): 30.11 inches Hg (1019.7 mb)
Winds: calm
Visibility: 10 or more miles (16+ km)
Ceiling: at least 12,000 feet AGL
Clouds: scattered clouds at 8000 feet AGL
Present Weather: automated observation with no human augmentation;
there may or may not be significant weather present at this time
KCGC 190555Z AUTO 00000KT 10SM SCT080 15/13 A3011 RMK AO2

Conditions at: KCGC observed 19 November 2018  05:35 UTC
Temperature: 15.0°C (59°F)
Dewpoint: 13.0°C (55°F) [RH = 88%]
Pressure (altimeter): 30.11 inches Hg (1019.7 mb)
Winds: calm
Visibility: 10 or more miles (16+ km)
Ceiling: at least 12,000 feet AGL
Clouds: scattered clouds at 8000 feet AGL
Present Weather: automated observation with no human augmentation;
there may or may not be significant weather present at this time
KCGC 190535Z AUTO 00000KT 10SM SCT080 15/13 A3011 RMK AO2

Conditions at: KCGC observed 19 November 2018  05:15 UTC
Temperature: 15.0°C (59°F)
Dewpoint: 14.0°C (57°F) [RH = 94%]
Pressure (altimeter): 30.13 inches Hg (1020.4 mb)
Winds: calm
Visibility: 10 or more miles (16+ km)
Ceiling: 8000 feet AGL
Clouds: scattered clouds at 7000 feet AGL
broken clouds at 8000 feet AGL
Present Weather: automated observation with no human augmentation;
there may or may not be significant weather present at this time
KCGC 190515Z AUTO 00000KT 10SM SCT070 BKN080 15/14 A3013 RMK AO2

Conditions at: KCGC observed 19 November 2018  04:55 UTC
Temperature: 15.0°C (59°F)
Dewpoint: 14.0°C (57°F) [RH = 94%]
Pressure (altimeter): 30.13 inches Hg (1020.4 mb)
Winds: calm
Visibility: 10 or more miles (16+ km)
Ceiling: 7000 feet AGL
Clouds: broken clouds at 7000 feet AGL
broken clouds at 8000 feet AGL
Present Weather: automated observation with no human augmentation;
there may or may not be significant weather present at this time
KCGC 190455Z AUTO 00000KT 10SM BKN070 BKN080 15/14 A3013 RMK AO2

Conditions at: KCGC observed 19 November 2018  04:35 UTC
Temperature: 16.0°C (61°F)
Dewpoint: 14.0°C (57°F) [RH = 88%]
Pressure (altimeter): 30.14 inches Hg (1020.7 mb)
Winds: calm
Visibility: 10 or more miles (16+ km)
Ceiling: 7000 feet AGL
Clouds: broken clouds at 7000 feet AGL
broken clouds at 8000 feet AGL
Present Weather: automated observation with no human augmentation;
there may or may not be significant weather present at this time
KCGC 190435Z AUTO 00000KT 10SM BKN070 BKN080 16/14 A3014 RMK AO2

Conditions at: KCGC observed 19 November 2018  04:15 UTC
Temperature: 16.0°C (61°F)
Dewpoint: 14.0°C (57°F) [RH = 88%]
Pressure (altimeter): 30.14 inches Hg (1020.7 mb)
Winds: calm
Visibility: 10 or more miles (16+ km)
Ceiling: 7000 feet AGL
Clouds: broken clouds at 7000 feet AGL
Present Weather: automated observation with no human augmentation;
there may or may not be significant weather present at this time
KCGC 190415Z AUTO 00000KT 10SM BKN070 16/14 A3014 RMK AO2

Conditions at: KCGC observed 19 November 2018  03:55 UTC
Temperature: 16.0°C (61°F)
Dewpoint: 14.0°C (57°F) [RH = 88%]
Pressure (altimeter): 30.14 inches Hg (1020.7 mb)
Winds: calm
Visibility: 10 or more miles (16+ km)
Ceiling: 7000 feet AGL
Clouds: overcast cloud deck at 7000 feet AGL
Present Weather: automated observation with no human augmentation;
there may or may not be significant weather present at this time
KCGC 190355Z AUTO 00000KT 10SM OVC070 16/14 A3014 RMK AO2

Conditions at: KCGC observed 19 November 2018  03:35 UTC
Temperature: 15.0°C (59°F)
Dewpoint: 14.0°C (57°F) [RH = 94%]
Pressure (altimeter): 30.14 inches Hg (1020.7 mb)
Winds: calm
Visibility: 10 or more miles (16+ km)
Ceiling: 7000 feet AGL
Clouds: overcast cloud deck at 7000 feet AGL
Present Weather: automated observation with no human augmentation;
there may or may not be significant weather present at this time
KCGC 190335Z AUTO 00000KT 10SM OVC070 15/14 A3014 RMK AO2

Conditions at: KCGC observed 19 November 2018  03:15 UTC
Temperature: 15.0°C (59°F)
Dewpoint: 14.0°C (57°F) [RH = 94%]
Pressure (altimeter): 30.14 inches Hg (1020.7 mb)
Winds: calm
Visibility: 10 or more miles (16+ km)
Ceiling: 7000 feet AGL
Clouds: broken clouds at 7000 feet AGL
Present Weather: automated observation with no human augmentation;
there may or may not be significant weather present at this time
KCGC 190315Z AUTO 00000KT 10SM BKN070 15/14 A3014 RMK AO2

Conditions at: KCGC observed 19 November 2018  02:55 UTC
Temperature: 14.0°C (57°F)
Dewpoint: 13.0°C (55°F) [RH = 94%]
Pressure (altimeter): 30.15 inches Hg (1021.1 mb)
Winds: calm
Visibility: 10 or more miles (16+ km)
Ceiling: at least 12,000 feet AGL
Clouds: scattered clouds at 7000 feet AGL
Present Weather: automated observation with no human augmentation;
there may or may not be significant weather present at this time
KCGC 190255Z AUTO 00000KT 10SM SCT070 14/13 A3015 RMK AO2

Conditions at: KCGC observed 19 November 2018  02:35 UTC
Temperature: 15.0°C (59°F)
Dewpoint: 14.0°C (57°F) [RH = 94%]
Pressure (altimeter): 30.14 inches Hg (1020.7 mb)
Winds: calm
Visibility: 10 or more miles (16+ km)
Ceiling: at least 12,000 feet AGL
Clouds: scattered clouds at 7000 feet AGL
Present Weather: automated observation with no human augmentation;
there may or may not be significant weather present at this time
KCGC 190235Z AUTO 00000KT 10SM SCT070 15/14 A3014 RMK AO2

Conditions at: KCGC observed 19 November 2018  02:15 UTC
Temperature: 16.0°C (61°F)
Dewpoint: 15.0°C (59°F) [RH = 94%]
Pressure (altimeter): 30.14 inches Hg (1020.7 mb)
Winds: calm
Visibility: 10 or more miles (16+ km)
Ceiling: at least 12,000 feet AGL
Clouds: scattered clouds at 7000 feet AGL
Present Weather: automated observation with no human augmentation;
there may or may not be significant weather present at this time
KCGC 190215Z AUTO 00000KT 10SM SCT070 16/15 A3014 RMK AO2

Conditions at: KCGC observed 19 November 2018  01:55 UTC
Temperature: 16.0°C (61°F)
Dewpoint: 15.0°C (59°F) [RH = 94%]
Pressure (altimeter): 30.14 inches Hg (1020.7 mb)
Winds: calm
Visibility: 10 or more miles (16+ km)
Ceiling: 7000 feet AGL
Clouds: broken clouds at 7000 feet AGL
Present Weather: automated observation with no human augmentation;
there may or may not be significant weather present at this time
KCGC 190155Z AUTO 00000KT 10SM BKN070 16/15 A3014 RMK AO2

Conditions at: KCGC observed 19 November 2018  01:35 UTC
Temperature: 16.0°C (61°F)
Dewpoint: 15.0°C (59°F) [RH = 94%]
Pressure (altimeter): 30.15 inches Hg (1021.1 mb)
Winds: calm
Visibility: 10 or more miles (16+ km)
Ceiling: 7000 feet AGL
Clouds: overcast cloud deck at 7000 feet AGL
Present Weather: automated observation with no human augmentation;
there may or may not be significant weather present at this time
KCGC 190135Z AUTO 00000KT 10SM OVC070 16/15 A3015 RMK AO2

Conditions at: KCGC observed 19 November 2018  01:15 UTC
Temperature: 16.0°C (61°F)
Dewpoint: 15.0°C (59°F) [RH = 94%]
Pressure (altimeter): 30.14 inches Hg (1020.7 mb)
Winds: calm
Visibility: 10 or more miles (16+ km)
Ceiling: 7000 feet AGL
Clouds: broken clouds at 7000 feet AGL
Present Weather: automated observation with no human augmentation;
there may or may not be significant weather present at this time
KCGC 190115Z AUTO 00000KT 10SM BKN070 16/15 A3014 RMK AO2

Conditions at: KCGC observed 19 November 2018  00:55 UTC
Temperature: 16.0°C (61°F)
Dewpoint: 15.0°C (59°F) [RH = 94%]
Pressure (altimeter): 30.14 inches Hg (1020.7 mb)
Winds: calm
Visibility: 10 or more miles (16+ km)
Ceiling: at least 12,000 feet AGL
Clouds: sky clear below 12,000 feet AGL
Present Weather: automated observation with no human augmentation;
there may or may not be significant weather present at this time
KCGC 190055Z AUTO 00000KT 10SM CLR 16/15 A3014 RMK AO2

Conditions at: KCGC observed 19 November 2018  00:35 UTC
Temperature: 16.0°C (61°F)
Dewpoint: 15.0°C (59°F) [RH = 94%]
Pressure (altimeter): 30.14 inches Hg (1020.7 mb)
Winds: calm
Visibility: 10 or more miles (16+ km)
Ceiling: at least 12,000 feet AGL
Clouds: sky clear below 12,000 feet AGL
Present Weather: automated observation with no human augmentation;
there may or may not be significant weather present at this time
KCGC 190035Z AUTO 00000KT 10SM CLR 16/15 A3014 RMK AO2

Conditions at: KCGC observed 19 November 2018  00:15 UTC
Temperature: 16.0°C (61°F)
Dewpoint: 15.0°C (59°F) [RH = 94%]
Pressure (altimeter): 30.13 inches Hg (1020.4 mb)
Winds: calm
Visibility: 10 or more miles (16+ km)
Ceiling: at least 12,000 feet AGL
Clouds: sky clear below 12,000 feet AGL
Present Weather: automated observation with no human augmentation;
there may or may not be significant weather present at this time
KCGC 190015Z AUTO 00000KT 10SM CLR 16/15 A3013 RMK AO2

Conditions at: KCGC observed 18 November 2018  23:55 UTC
Temperature: 17.0°C (63°F)
Dewpoint: 16.0°C (61°F) [RH = 94%]
Pressure (altimeter): 30.12 inches Hg (1020.1 mb)
Winds: calm
Visibility: 10 or more miles (16+ km)
Ceiling: at least 12,000 feet AGL
Clouds: sky clear below 12,000 feet AGL
Present Weather: automated observation with no human augmentation;
there may or may not be significant weather present at this time
KCGC 182355Z AUTO 00000KT 10SM CLR 17/16 A3012 RMK AO2

Conditions at: KCGC observed 18 November 2018  23:35 UTC
Temperature: 18.0°C (64°F)
Dewpoint: 16.0°C (61°F) [RH = 88%]
Pressure (altimeter): 30.11 inches Hg (1019.7 mb)
Winds: calm
Visibility: 10 or more miles (16+ km)
Ceiling: at least 12,000 feet AGL
Clouds: sky clear below 12,000 feet AGL
Present Weather: automated observation with no human augmentation;
there may or may not be significant weather present at this time
KCGC 182335Z AUTO 00000KT 10SM CLR 18/16 A3011 RMK AO2

Conditions at: KCGC observed 18 November 2018  23:15 UTC
Temperature: 19.0°C (66°F)
Dewpoint: 16.0°C (61°F) [RH = 83%]
Pressure (altimeter): 30.11 inches Hg (1019.7 mb)
Winds: calm
Visibility: 10 or more miles (16+ km)
Ceiling: at least 12,000 feet AGL
Clouds: sky clear below 12,000 feet AGL
Present Weather: automated observation with no human augmentation;
there may or may not be significant weather present at this time
KCGC 182315Z AUTO 00000KT 10SM CLR 19/16 A3011 RMK AO2

Conditions at: KCGC observed 18 November 2018  22:55 UTC
Temperature: 20.0°C (68°F)
Dewpoint: 16.0°C (61°F) [RH = 78%]
Pressure (altimeter): 30.11 inches Hg (1019.7 mb)
Winds: calm
Visibility: 10 or more miles (16+ km)
Ceiling: at least 12,000 feet AGL
Clouds: sky clear below 12,000 feet AGL
Present Weather: automated observation with no human augmentation;
there may or may not be significant weather present at this time
KCGC 182255Z AUTO 00000KT 10SM CLR 20/16 A3011 RMK AO2

Conditions at: KCGC observed 18 November 2018  22:35 UTC
Temperature: 21.0°C (70°F)
Dewpoint: 16.0°C (61°F) [RH = 73%]
Pressure (altimeter): 30.10 inches Hg (1019.4 mb)
Winds: calm
Visibility: 10 or more miles (16+ km)
Ceiling: at least 12,000 feet AGL
Clouds: sky clear below 12,000 feet AGL
Present Weather: automated observation with no human augmentation;
there may or may not be significant weather present at this time
KCGC 182235Z AUTO 00000KT 10SM CLR 21/16 A3010 RMK AO2

Conditions at: KCGC observed 18 November 2018  22:15 UTC
Temperature: 22.0°C (72°F)
Dewpoint: 16.0°C (61°F) [RH = 69%]
Pressure (altimeter): 30.10 inches Hg (1019.4 mb)
Winds: calm
Visibility: 10 or more miles (16+ km)
Ceiling: at least 12,000 feet AGL
Clouds: sky clear below 12,000 feet AGL
Present Weather: automated observation with no human augmentation;
there may or may not be significant weather present at this time
KCGC 182215Z AUTO 00000KT 10SM CLR 22/16 A3010 RMK AO2

Conditions at: KCGC observed 18 November 2018  21:55 UTC
Temperature: 23.0°C (73°F)
Dewpoint: 15.0°C (59°F) [RH = 61%]
Pressure (altimeter): 30.09 inches Hg (1019.0 mb)
Winds: from the NW (310 degrees) at 3 MPH (3 knots; 1.6 m/s)
Visibility: 10 or more miles (16+ km)
Ceiling: at least 12,000 feet AGL
Clouds: sky clear below 12,000 feet AGL
Present Weather: automated observation with no human augmentation;
there may or may not be significant weather present at this time
KCGC 182155Z AUTO 31003KT 10SM CLR 23/15 A3009 RMK AO2

Conditions at: KCGC observed 18 November 2018  21:35 UTC
Temperature: 24.0°C (75°F)
Dewpoint: 14.0°C (57°F) [RH = 54%]
Pressure (altimeter): 30.09 inches Hg (1019.0 mb)
Winds: calm
Visibility: 10 or more miles (16+ km)
Ceiling: at least 12,000 feet AGL
Clouds: sky clear below 12,000 feet AGL
Present Weather: automated observation with no human augmentation;
there may or may not be significant weather present at this time
KCGC 182135Z AUTO 00000KT 10SM CLR 24/14 A3009 RMK AO2

Conditions at: KCGC observed 18 November 2018  21:15 UTC
Temperature: 25.0°C (77°F)
Dewpoint: 15.0°C (59°F) [RH = 54%]
Pressure (altimeter): 30.09 inches Hg (1019.0 mb)
Winds: from the NNW (340 degrees) at 3 MPH (3 knots; 1.6 m/s)
Visibility: 10 or more miles (16+ km)
Ceiling: at least 12,000 feet AGL
Clouds: sky clear below 12,000 feet AGL
Present Weather: automated observation with no human augmentation;
there may or may not be significant weather present at this time
KCGC 182115Z AUTO 34003KT 10SM CLR 25/15 A3009 RMK AO2

Conditions at: KCGC observed 18 November 2018  20:55 UTC
Temperature: 24.0°C (75°F)
Dewpoint: 15.0°C (59°F) [RH = 57%]
Pressure (altimeter): 30.10 inches Hg (1019.4 mb)
Winds: calm
Visibility: 10 or more miles (16+ km)
Ceiling: at least 12,000 feet AGL
Clouds: sky clear below 12,000 feet AGL
Present Weather: automated observation with no human augmentation;
there may or may not be significant weather present at this time
KCGC 182055Z AUTO 00000KT 10SM CLR 24/15 A3010 RMK AO2

Conditions at: KCGC observed 18 November 2018  20:35 UTC
Temperature: 25.0°C (77°F)
Dewpoint: 14.0°C (57°F) [RH = 50%]
Pressure (altimeter): 30.10 inches Hg (1019.4 mb)
Winds: from the WNW (300 degrees) at 3 MPH (3 knots; 1.6 m/s)
Visibility: 10 or more miles (16+ km)
Ceiling: at least 12,000 feet AGL
Clouds: sky clear below 12,000 feet AGL
Present Weather: automated observation with no human augmentation;
there may or may not be significant weather present at this time
KCGC 182035Z AUTO 30003KT 10SM CLR 25/14 A3010 RMK AO2

Conditions at: KCGC observed 18 November 2018  20:15 UTC
Temperature: 25.0°C (77°F)
Dewpoint: 15.0°C (59°F) [RH = 54%]
Pressure (altimeter): 30.11 inches Hg (1019.7 mb)
Winds: from the W (270 degrees) at 6 MPH (5 knots; 2.6 m/s)
Visibility: 10 or more miles (16+ km)
Ceiling: at least 12,000 feet AGL
Clouds: sky clear below 12,000 feet AGL
Present Weather: automated observation with no human augmentation;
there may or may not be significant weather present at this time
KCGC 182015Z AUTO 27005KT 10SM CLR 25/15 A3011 RMK AO2

Conditions at: KCGC observed 18 November 2018  19:55 UTC
Temperature: 25.0°C (77°F)
Dewpoint: 15.0°C (59°F) [RH = 54%]
Pressure (altimeter): 30.11 inches Hg (1019.7 mb)
Winds: from the NW (310 degrees) at 3 MPH (3 knots; 1.6 m/s)
Visibility: 10 or more miles (16+ km)
Ceiling: at least 12,000 feet AGL
Clouds: sky clear below 12,000 feet AGL
Present Weather: automated observation with no human augmentation;
there may or may not be significant weather present at this time
KCGC 181955Z AUTO 31003KT 10SM CLR 25/15 A3011 RMK AO2

Conditions at: KCGC observed 18 November 2018  19:35 UTC
Temperature: 25.0°C (77°F)
Dewpoint: 15.0°C (59°F) [RH = 54%]
Pressure (altimeter): 30.11 inches Hg (1019.7 mb)
Winds: from the WNW (300 degrees) at 3 MPH (3 knots; 1.6 m/s)
Visibility: 10 or more miles (16+ km)
Ceiling: at least 12,000 feet AGL
Clouds: sky clear below 12,000 feet AGL
Present Weather: automated observation with no human augmentation;
there may or may not be significant weather present at this time
KCGC 181935Z AUTO 30003KT 10SM CLR 25/15 A3011 RMK AO2

Conditions at: KCGC observed 18 November 2018  19:15 UTC
Temperature: 25.0°C (77°F)
Dewpoint: 15.0°C (59°F) [RH = 54%]
Pressure (altimeter): 30.12 inches Hg (1020.1 mb)
Winds: from the WNW (290 degrees) at 3 MPH (3 knots; 1.6 m/s)
Visibility: 10 or more miles (16+ km)
Ceiling: at least 12,000 feet AGL
Clouds: scattered clouds at 6000 feet AGL
Present Weather: automated observation with no human augmentation;
there may or may not be significant weather present at this time
KCGC 181915Z AUTO 29003KT 10SM SCT060 25/15 A3012 RMK AO2

Conditions at: KCGC observed 18 November 2018  18:55 UTC
Temperature: 25.0°C (77°F)
Dewpoint: 16.0°C (61°F) [RH = 57%]
Pressure (altimeter): 30.13 inches Hg (1020.4 mb)
Winds: from the WNW (290 degrees) at 7 MPH (6 knots; 3.1 m/s)
Visibility: 10 or more miles (16+ km)
Ceiling: at least 12,000 feet AGL
Clouds: scattered clouds at 4800 feet AGL
Present Weather: automated observation with no human augmentation;
there may or may not be significant weather present at this time
KCGC 181855Z AUTO 29006KT 10SM SCT048 25/16 A3013 RMK AO2

Conditions at: KCGC observed 18 November 2018  18:35 UTC
Temperature: 25.0°C (77°F)
Dewpoint: 12.0°C (54°F) [RH = 44%]
Pressure (altimeter): 30.13 inches Hg (1020.4 mb)
Winds: from the W (260 degrees) at 6 MPH (5 knots; 2.6 m/s)
Visibility: 10 or more miles (16+ km)
Ceiling: at least 12,000 feet AGL
Clouds: scattered clouds at 4400 feet AGL
scattered clouds at 6000 feet AGL
Present Weather: automated observation with no human augmentation;
there may or may not be significant weather present at this time
KCGC 181835Z AUTO 26005KT 10SM SCT044 SCT060 25/12 A3013 RMK AO2

Conditions at: KCGC observed 18 November 2018  18:15 UTC
Temperature: 25.0°C (77°F)
Dewpoint: 14.0°C (57°F) [RH = 50%]
Pressure (altimeter): 30.14 inches Hg (1020.7 mb)
Winds: calm
Visibility: 10 or more miles (16+ km)
Ceiling: at least 12,000 feet AGL
Clouds: scattered clouds at 4200 feet AGL
scattered clouds at 6000 feet AGL
Present Weather: automated observation with no human augmentation;
there may or may not be significant weather present at this time
KCGC 181815Z AUTO 00000KT 10SM SCT042 SCT060 25/14 A3014 RMK AO2

Conditions at: KCGC observed 18 November 2018  17:55 UTC
Temperature: 25.0°C (77°F)
Dewpoint: 14.0°C (57°F) [RH = 50%]
Pressure (altimeter): 30.15 inches Hg (1021.1 mb)
Winds: calm
Visibility: 10 or more miles (16+ km)
Ceiling: at least 12,000 feet AGL
Clouds: scattered clouds at 4200 feet AGL
Present Weather: automated observation with no human augmentation;
there may or may not be significant weather present at this time
KCGC 181755Z AUTO 00000KT 10SM SCT042 25/14 A3015 RMK AO2

Conditions at: KCGC observed 18 November 2018  17:35 UTC
Temperature: 25.0°C (77°F)
Dewpoint: 16.0°C (61°F) [RH = 57%]
Pressure (altimeter): 30.16 inches Hg (1021.4 mb)
Winds: calm
Visibility: 10 or more miles (16+ km)
Ceiling: at least 12,000 feet AGL
Clouds: scattered clouds at 4200 feet AGL
Present Weather: automated observation with no human augmentation;
there may or may not be significant weather present at this time
KCGC 181735Z AUTO 00000KT 10SM SCT042 25/16 A3016 RMK AO2

Conditions at: KCGC observed 18 November 2018  17:15 UTC
Temperature: 25.0°C (77°F)
Dewpoint: 16.0°C (61°F) [RH = 57%]
Pressure (altimeter): 30.17 inches Hg (1021.8 mb)
Winds: calm
Visibility: 10 or more miles (16+ km)
Ceiling: at least 12,000 feet AGL
Clouds: sky clear below 12,000 feet AGL
Present Weather: automated observation with no human augmentation;
there may or may not be significant weather present at this time
KCGC 181715Z AUTO 00000KT 10SM CLR 25/16 A3017 RMK AO2

Conditions at: KCGC observed 18 November 2018  16:55 UTC
Temperature: 24.0°C (75°F)
Dewpoint: 16.0°C (61°F) [RH = 61%]
Pressure (altimeter): 30.18 inches Hg (1022.1 mb)
Winds: from the E (90 degrees) at 6 MPH (5 knots; 2.6 m/s)
Visibility: 10 or more miles (16+ km)
Ceiling: at least 12,000 feet AGL
Clouds: sky clear below 12,000 feet AGL
Present Weather: automated observation with no human augmentation;
there may or may not be significant weather present at this time
KCGC 181655Z AUTO 09005KT 10SM CLR 24/16 A3018 RMK AO2

Conditions at: KCGC observed 18 November 2018  16:35 UTC
Temperature: 23.0°C (73°F)
Dewpoint: 16.0°C (61°F) [RH = 65%]
Pressure (altimeter): 30.19 inches Hg (1022.4 mb)
Winds: calm
Visibility: 10 or more miles (16+ km)
Ceiling: at least 12,000 feet AGL
Clouds: sky clear below 12,000 feet AGL
Present Weather: automated observation with no human augmentation;
there may or may not be significant weather present at this time
KCGC 181635Z AUTO 00000KT 10SM CLR 23/16 A3019 RMK AO2

Conditions at: KCGC observed 18 November 2018  16:15 UTC
Temperature: 23.0°C (73°F)
Dewpoint: 16.0°C (61°F) [RH = 65%]
Pressure (altimeter): 30.19 inches Hg (1022.4 mb)
Winds: from the E (90 degrees) at 5 MPH (4 knots; 2.1 m/s)
Visibility: 10 or more miles (16+ km)
Ceiling: at least 12,000 feet AGL
Clouds: sky clear below 12,000 feet AGL
Present Weather: automated observation with no human augmentation;
there may or may not be significant weather present at this time
KCGC 181615Z AUTO 09004KT 10SM CLR 23/16 A3019 RMK AO2

Conditions at: KCGC observed 18 November 2018  15:55 UTC
Temperature: 22.0°C (72°F)
Dewpoint: 17.0°C (63°F) [RH = 73%]
Pressure (altimeter): 30.20 inches Hg (1022.8 mb)
Winds: from the NE (40 degrees) at 3 MPH (3 knots; 1.6 m/s)
Visibility: 10 or more miles (16+ km)
Ceiling: at least 12,000 feet AGL
Clouds: sky clear below 12,000 feet AGL
Present Weather: automated observation with no human augmentation;
there may or may not be significant weather present at this time
KCGC 181555Z AUTO 04003KT 10SM CLR 22/17 A3020 RMK AO2

Conditions at: KCGC observed 18 November 2018  15:35 UTC
Temperature: 22.0°C (72°F)
Dewpoint: 16.0°C (61°F) [RH = 69%]
Pressure (altimeter): 30.20 inches Hg (1022.8 mb)
Winds: from the ENE (60 degrees) at 6 MPH (5 knots; 2.6 m/s)
Visibility: 10 or more miles (16+ km)
Ceiling: at least 12,000 feet AGL
Clouds: sky clear below 12,000 feet AGL
Present Weather: automated observation with no human augmentation;
there may or may not be significant weather present at this time
KCGC 181535Z AUTO 06005KT 10SM CLR 22/16 A3020 RMK AO2

Conditions at: KCGC observed 18 November 2018  15:15 UTC
Temperature: 21.0°C (70°F)
Dewpoint: 16.0°C (61°F) [RH = 73%]
Pressure (altimeter): 30.21 inches Hg (1023.1 mb)
Winds: from the E (80 degrees) at 6 MPH (5 knots; 2.6 m/s)
Visibility: 10 or more miles (16+ km)
Ceiling: at least 12,000 feet AGL
Clouds: sky clear below 12,000 feet AGL
Present Weather: automated observation with no human augmentation;
there may or may not be significant weather present at this time
KCGC 181515Z AUTO 08005KT 10SM CLR 21/16 A3021 RMK AO2

Conditions at: KCGC observed 18 November 2018  14:55 UTC
Temperature: 21.0°C (70°F)
Dewpoint: 16.0°C (61°F) [RH = 73%]
Pressure (altimeter): 30.21 inches Hg (1023.1 mb)
Winds: from the ENE (70 degrees) at 5 MPH (4 knots; 2.1 m/s)
Visibility: 10 or more miles (16+ km)
Ceiling: at least 12,000 feet AGL
Clouds: sky clear below 12,000 feet AGL
Present Weather: automated observation with no human augmentation;
there may or may not be significant weather present at this time
KCGC 181455Z AUTO 07004KT 10SM CLR 21/16 A3021 RMK AO2

Conditions at: KCGC observed 18 November 2018  14:35 UTC
Temperature: 20.0°C (68°F)
Dewpoint: 16.0°C (61°F) [RH = 78%]
Pressure (altimeter): 30.20 inches Hg (1022.8 mb)
Winds: from the NNE (20 degrees) at 5 MPH (4 knots; 2.1 m/s)
Visibility: 10 or more miles (16+ km)
Ceiling: at least 12,000 feet AGL
Clouds: sky clear below 12,000 feet AGL
Present Weather: automated observation with no human augmentation;
there may or may not be significant weather present at this time
KCGC 181435Z AUTO 02004KT 10SM CLR 20/16 A3020 RMK AO2

Conditions at: KCGC observed 18 November 2018  14:15 UTC
Temperature: 19.0°C (66°F)
Dewpoint: 16.0°C (61°F) [RH = 83%]
Pressure (altimeter): 30.20 inches Hg (1022.8 mb)
Winds: from the NE (40 degrees) at 6 MPH (5 knots; 2.6 m/s)
Visibility: 10 or more miles (16+ km)
Ceiling: at least 12,000 feet AGL
Clouds: sky clear below 12,000 feet AGL
Present Weather: automated observation with no human augmentation;
there may or may not be significant weather present at this time
KCGC 181415Z AUTO 04005KT 10SM CLR 19/16 A3020 RMK AO2

Conditions at: KCGC observed 18 November 2018  13:55 UTC
Temperature: 18.0°C (64°F)
Dewpoint: 15.0°C (59°F) [RH = 83%]
Pressure (altimeter): 30.20 inches Hg (1022.8 mb)
Winds: from the NE (40 degrees) at 3 MPH (3 knots; 1.6 m/s)
Visibility: 10 or more miles (16+ km)
Ceiling: at least 12,000 feet AGL
Clouds: sky clear below 12,000 feet AGL
Present Weather: automated observation with no human augmentation;
there may or may not be significant weather present at this time
KCGC 181355Z AUTO 04003KT 10SM CLR 18/15 A3020 RMK AO2

Conditions at: KCGC observed 18 November 2018  13:35 UTC
Temperature: 16.0°C (61°F)
Dewpoint: 15.0°C (59°F) [RH = 94%]
Pressure (altimeter): 30.19 inches Hg (1022.4 mb)
Winds: from the ENE (60 degrees) at 3 MPH (3 knots; 1.6 m/s)
Visibility: 10 or more miles (16+ km)
Ceiling: at least 12,000 feet AGL
Clouds: sky clear below 12,000 feet AGL
Present Weather: automated observation with no human augmentation;
there may or may not be significant weather present at this time
KCGC 181335Z AUTO 06003KT 10SM CLR 16/15 A3019 RMK AO2

Conditions at: KCGC observed 18 November 2018  13:15 UTC
Temperature: 15.0°C (59°F)
Dewpoint: 15.0°C (59°F) [RH = 100%]
Pressure (altimeter): 30.19 inches Hg (1022.4 mb)
Winds: from the NE (50 degrees) at 3 MPH (3 knots; 1.6 m/s)
Visibility: 10 or more miles (16+ km)
Ceiling: at least 12,000 feet AGL
Clouds: sky clear below 12,000 feet AGL
Present Weather: automated observation with no human augmentation;
there may or may not be significant weather present at this time
KCGC 181315Z AUTO 05003KT 10SM CLR 15/15 A3019 RMK AO2

Conditions at: KCGC observed 18 November 2018  12:55 UTC
Temperature: 14.0°C (57°F)
Dewpoint: 14.0°C (57°F) [RH = 100%]
Pressure (altimeter): 30.19 inches Hg (1022.4 mb)
Winds: from the NE (40 degrees) at 3 MPH (3 knots; 1.6 m/s)
Visibility: 10 or more miles (16+ km)
Ceiling: at least 12,000 feet AGL
Clouds: sky clear below 12,000 feet AGL
Present Weather: automated observation with no human augmentation;
there may or may not be significant weather present at this time
KCGC 181255Z AUTO 04003KT 10SM CLR 14/14 A3019 RMK AO2

Conditions at: KCGC observed 18 November 2018  12:35 UTC
Temperature: 13.0°C (55°F)
Dewpoint: 13.0°C (55°F) [RH = 100%]
Pressure (altimeter): 30.19 inches Hg (1022.4 mb)
Winds: calm
Visibility: 7 miles (11 km)
Ceiling: at least 12,000 feet AGL
Clouds: sky clear below 12,000 feet AGL
Present Weather: automated observation with no human augmentation;
there may or may not be significant weather present at this time
KCGC 181235Z AUTO 00000KT 7SM CLR 13/13 A3019 RMK AO2

Conditions at: KCGC observed 18 November 2018  12:15 UTC
Temperature: 12.0°C (54°F)
Dewpoint: 12.0°C (54°F) [RH = 100%]
Pressure (altimeter): 30.18 inches Hg (1022.1 mb)
Winds: calm
Visibility: 5 miles (8 km)
Ceiling: at least 12,000 feet AGL
Clouds: sky clear below 12,000 feet AGL
Present Weather: BR  (mist)
KCGC 181215Z AUTO 00000KT 5SM BR CLR 12/12 A3018 RMK AO2

Conditions at: KCGC observed 18 November 2018  11:55 UTC
Temperature: 12.0°C (54°F)
Dewpoint: 12.0°C (54°F) [RH = 100%]
Pressure (altimeter): 30.17 inches Hg (1021.8 mb)
Winds: calm
Visibility: 7 miles (11 km)
Ceiling: at least 12,000 feet AGL
Clouds: sky clear below 12,000 feet AGL
Present Weather: automated observation with no human augmentation;
there may or may not be significant weather present at this time
KCGC 181155Z AUTO 00000KT 7SM CLR 12/12 A3017 RMK AO2

Conditions at: KCGC observed 18 November 2018  11:35 UTC
Temperature: 13.0°C (55°F)
Dewpoint: 12.0°C (54°F) [RH = 94%]
Pressure (altimeter): 30.18 inches Hg (1022.1 mb)
Winds: calm
Visibility: 10 or more miles (16+ km)
Ceiling: at least 12,000 feet AGL
Clouds: sky clear below 12,000 feet AGL
Present Weather: automated observation with no human augmentation;
there may or may not be significant weather present at this time
KCGC 181135Z AUTO 00000KT 10SM CLR 13/12 A3018 RMK AO2

Conditions at: KCGC observed 18 November 2018  11:15 UTC
Temperature: 12.0°C (54°F)
Dewpoint: 12.0°C (54°F) [RH = 100%]
Pressure (altimeter): 30.17 inches Hg (1021.8 mb)
Winds: calm
Visibility: 7 miles (11 km)
Ceiling: at least 12,000 feet AGL
Clouds: sky clear below 12,000 feet AGL
Present Weather: automated observation with no human augmentation;
there may or may not be significant weather present at this time
KCGC 181115Z AUTO 00000KT 7SM CLR 12/12 A3017 RMK AO2

Conditions at: KCGC observed 18 November 2018  10:55 UTC
Temperature: 11.0°C (52°F)
Dewpoint: 11.0°C (52°F) [RH = 100%]
Pressure (altimeter): 30.16 inches Hg (1021.4 mb)
Winds: calm
Visibility: 7 miles (11 km)
Ceiling: at least 12,000 feet AGL
Clouds: sky clear below 12,000 feet AGL
Present Weather: automated observation with no human augmentation;
there may or may not be significant weather present at this time
KCGC 181055Z AUTO 00000KT 7SM CLR 11/11 A3016 RMK AO2

Conditions at: KCGC observed 18 November 2018  10:35 UTC
Temperature: 12.0°C (54°F)
Dewpoint: 12.0°C (54°F) [RH = 100%]
Pressure (altimeter): 30.15 inches Hg (1021.1 mb)
Winds: calm
Visibility: 10 or more miles (16+ km)
Ceiling: at least 12,000 feet AGL
Clouds: sky clear below 12,000 feet AGL
Present Weather: automated observation with no human augmentation;
there may or may not be significant weather present at this time
KCGC 181035Z AUTO 00000KT 10SM CLR 12/12 A3015 RMK AO2

Conditions at: KCGC observed 18 November 2018  10:15 UTC
Temperature: 11.0°C (52°F)
Dewpoint: 11.0°C (52°F) [RH = 100%]
Pressure (altimeter): 30.15 inches Hg (1021.1 mb)
Winds: calm
Visibility: 7 miles (11 km)
Ceiling: at least 12,000 feet AGL
Clouds: sky clear below 12,000 feet AGL
Present Weather: automated observation with no human augmentation;
there may or may not be significant weather present at this time
KCGC 181015Z AUTO 00000KT 7SM CLR 11/11 A3015 RMK AO2

Conditions at: KCGC observed 18 November 2018  09:55 UTC
Temperature: 12.0°C (54°F)
Dewpoint: 12.0°C (54°F) [RH = 100%]
Pressure (altimeter): 30.14 inches Hg (1020.7 mb)
Winds: calm
Visibility: 10 or more miles (16+ km)
Ceiling: at least 12,000 feet AGL
Clouds: sky clear below 12,000 feet AGL
Present Weather: automated observation with no human augmentation;
there may or may not be significant weather present at this time
KCGC 180955Z AUTO 00000KT 10SM CLR 12/12 A3014 RMK AO2

Conditions at: KCGC observed 18 November 2018  09:35 UTC
Temperature: 12.0°C (54°F)
Dewpoint: 11.0°C (52°F) [RH = 94%]
Pressure (altimeter): 30.14 inches Hg (1020.7 mb)
Winds: from the ENE (70 degrees) at 3 MPH (3 knots; 1.6 m/s)
Visibility: 10 or more miles (16+ km)
Ceiling: at least 12,000 feet AGL
Clouds: sky clear below 12,000 feet AGL
Present Weather: automated observation with no human augmentation;
there may or may not be significant weather present at this time
KCGC 180935Z AUTO 07003KT 10SM CLR 12/11 A3014 RMK AO2

Conditions at: KCGC observed 18 November 2018  09:15 UTC
Temperature: 11.0°C (52°F)
Dewpoint: 10.0°C (50°F) [RH = 94%]
Pressure (altimeter): 30.14 inches Hg (1020.7 mb)
Winds: calm
Visibility: 7 miles (11 km)
Ceiling: at least 12,000 feet AGL
Clouds: sky clear below 12,000 feet AGL
Present Weather: automated observation with no human augmentation;
there may or may not be significant weather present at this time
KCGC 180915Z AUTO 00000KT 7SM CLR 11/10 A3014 RMK AO2

Conditions at: KCGC observed 18 November 2018  08:55 UTC
Temperature: 10.0°C (50°F)
Dewpoint: 10.0°C (50°F) [RH = 100%]
Pressure (altimeter): 30.15 inches Hg (1021.1 mb)
Winds: calm
Visibility: 7 miles (11 km)
Ceiling: at least 12,000 feet AGL
Clouds: sky clear below 12,000 feet AGL
Present Weather: automated observation with no human augmentation;
there may or may not be significant weather present at this time
KCGC 180855Z AUTO 00000KT 7SM CLR 10/10 A3015 RMK AO2

Conditions at: KCGC observed 18 November 2018  08:35 UTC
Temperature: 10.0°C (50°F)
Dewpoint: 10.0°C (50°F) [RH = 100%]
Pressure (altimeter): 30.14 inches Hg (1020.7 mb)
Winds: calm
Visibility: 5 miles (8 km)
Ceiling: at least 12,000 feet AGL
Clouds: sky clear below 12,000 feet AGL
Present Weather: BR  (mist)
KCGC 180835Z AUTO 00000KT 5SM BR CLR 10/10 A3014 RMK AO2

Conditions at: KCGC observed 18 November 2018  08:15 UTC
Temperature: 11.0°C (52°F)
Dewpoint: 10.0°C (50°F) [RH = 94%]
Pressure (altimeter): 30.14 inches Hg (1020.7 mb)
Winds: calm
Visibility: 10 or more miles (16+ km)
Ceiling: at least 12,000 feet AGL
Clouds: sky clear below 12,000 feet AGL
Present Weather: automated observation with no human augmentation;
there may or may not be significant weather present at this time
KCGC 180815Z AUTO 00000KT 10SM CLR 11/10 A3014 RMK AO2

Conditions at: KCGC observed 18 November 2018  07:55 UTC
Temperature: 11.0°C (52°F)
Dewpoint: 11.0°C (52°F) [RH = 100%]
Pressure (altimeter): 30.14 inches Hg (1020.7 mb)
Winds: calm
Visibility: 10 or more miles (16+ km)
Ceiling: at least 12,000 feet AGL
Clouds: sky clear below 12,000 feet AGL
Present Weather: automated observation with no human augmentation;
there may or may not be significant weather present at this time
KCGC 180755Z AUTO 00000KT 10SM CLR 11/11 A3014 RMK AO2

Conditions at: KCGC observed 18 November 2018  07:35 UTC
Temperature: 12.0°C (54°F)
Dewpoint: 11.0°C (52°F) [RH = 94%]
Pressure (altimeter): 30.15 inches Hg (1021.1 mb)
Winds: calm
Visibility: 10 or more miles (16+ km)
Ceiling: at least 12,000 feet AGL
Clouds: sky clear below 12,000 feet AGL
Present Weather: automated observation with no human augmentation;
there may or may not be significant weather present at this time
KCGC 180735Z AUTO 00000KT 10SM CLR 12/11 A3015 RMK AO2

Conditions at: KCGC observed 18 November 2018  07:15 UTC
Temperature: 12.0°C (54°F)
Dewpoint: 11.0°C (52°F) [RH = 94%]
Pressure (altimeter): 30.15 inches Hg (1021.1 mb)
Winds: calm
Visibility: 10 or more miles (16+ km)
Ceiling: at least 12,000 feet AGL
Clouds: sky clear below 12,000 feet AGL
Present Weather: automated observation with no human augmentation;
there may or may not be significant weather present at this time
KCGC 180715Z AUTO 00000KT 10SM CLR 12/11 A3015 RMK AO2

Conditions at: KCGC observed 18 November 2018  06:55 UTC
Temperature: 12.0°C (54°F)
Dewpoint: 11.0°C (52°F) [RH = 94%]
Pressure (altimeter): 30.16 inches Hg (1021.4 mb)
Winds: calm
Visibility: 10 or more miles (16+ km)
Ceiling: at least 12,000 feet AGL
Clouds: sky clear below 12,000 feet AGL
Present Weather: automated observation with no human augmentation;
there may or may not be significant weather present at this time
KCGC 180655Z AUTO 00000KT 10SM CLR 12/11 A3016 RMK AO2

Conditions at: KCGC observed 18 November 2018  06:35 UTC
Temperature: 11.0°C (52°F)
Dewpoint: 11.0°C (52°F) [RH = 100%]
Pressure (altimeter): 30.16 inches Hg (1021.4 mb)
Winds: calm
Visibility: 10 or more miles (16+ km)
Ceiling: at least 12,000 feet AGL
Clouds: sky clear below 12,000 feet AGL
Present Weather: automated observation with no human augmentation;
there may or may not be significant weather present at this time
KCGC 180635Z AUTO 00000KT 10SM CLR 11/11 A3016 RMK AO2

Conditions at: KCGC observed 18 November 2018  06:15 UTC
Temperature: 12.0°C (54°F)
Dewpoint: 11.0°C (52°F) [RH = 94%]
Pressure (altimeter): 30.15 inches Hg (1021.1 mb)
Winds: calm
Visibility: 10 or more miles (16+ km)
Ceiling: at least 12,000 feet AGL
Clouds: sky clear below 12,000 feet AGL
Present Weather: automated observation with no human augmentation;
there may or may not be significant weather present at this time
KCGC 180615Z AUTO 00000KT 10SM CLR 12/11 A3015 RMK AO2

Conditions at: KCGC observed 18 November 2018  05:55 UTC
Temperature: 11.0°C (52°F)
Dewpoint: 11.0°C (52°F) [RH = 100%]
Pressure (altimeter): 30.16 inches Hg (1021.4 mb)
Winds: calm
Visibility: 10 or more miles (16+ km)
Ceiling: at least 12,000 feet AGL
Clouds: sky clear below 12,000 feet AGL
Present Weather: automated observation with no human augmentation;
there may or may not be significant weather present at this time
KCGC 180555Z AUTO 00000KT 10SM CLR 11/11 A3016 RMK AO2

Conditions at: KCGC observed 18 November 2018  05:35 UTC
Temperature: 11.0°C (52°F)
Dewpoint: 10.0°C (50°F) [RH = 94%]
Pressure (altimeter): 30.16 inches Hg (1021.4 mb)
Winds: calm
Visibility: 10 or more miles (16+ km)
Ceiling: at least 12,000 feet AGL
Clouds: sky clear below 12,000 feet AGL
Present Weather: automated observation with no human augmentation;
there may or may not be significant weather present at this time
KCGC 180535Z AUTO 00000KT 10SM CLR 11/10 A3016 RMK AO2

Conditions at: KCGC observed 18 November 2018  05:15 UTC
Temperature: 12.0°C (54°F)
Dewpoint: 11.0°C (52°F) [RH = 94%]
Pressure (altimeter): 30.17 inches Hg (1021.8 mb)
Winds: calm
Visibility: 10 or more miles (16+ km)
Ceiling: at least 12,000 feet AGL
Clouds: sky clear below 12,000 feet AGL
Present Weather: automated observation with no human augmentation;
there may or may not be significant weather present at this time
KCGC 180515Z AUTO 00000KT 10SM CLR 12/11 A3017 RMK AO2

Conditions at: KCGC observed 18 November 2018  04:55 UTC
Temperature: 11.0°C (52°F)
Dewpoint: 10.0°C (50°F) [RH = 94%]
Pressure (altimeter): 30.17 inches Hg (1021.8 mb)
Winds: calm
Visibility: 10 or more miles (16+ km)
Ceiling: at least 12,000 feet AGL
Clouds: sky clear below 12,000 feet AGL
Present Weather: automated observation with no human augmentation;
there may or may not be significant weather present at this time
KCGC 180455Z AUTO 00000KT 10SM CLR 11/10 A3017 RMK AO2

Conditions at: KCGC observed 18 November 2018  04:35 UTC
Temperature: 11.0°C (52°F)
Dewpoint: 10.0°C (50°F) [RH = 94%]
Pressure (altimeter): 30.16 inches Hg (1021.4 mb)
Winds: calm
Visibility: 10 or more miles (16+ km)
Ceiling: at least 12,000 feet AGL
Clouds: sky clear below 12,000 feet AGL
Present Weather: automated observation with no human augmentation;
there may or may not be significant weather present at this time
KCGC 180435Z AUTO 00000KT 10SM CLR 11/10 A3016 RMK AO2

Conditions at: KCGC observed 18 November 2018  04:15 UTC
Temperature: 11.0°C (52°F)
Dewpoint: 10.0°C (50°F) [RH = 94%]
Pressure (altimeter): 30.17 inches Hg (1021.8 mb)
Winds: calm
Visibility: 10 or more miles (16+ km)
Ceiling: at least 12,000 feet AGL
Clouds: sky clear below 12,000 feet AGL
Present Weather: automated observation with no human augmentation;
there may or may not be significant weather present at this time
KCGC 180415Z AUTO 00000KT 10SM CLR 11/10 A3017 RMK AO2

Conditions at: KCGC observed 18 November 2018  03:55 UTC
Temperature: 11.0°C (52°F)
Dewpoint: 10.0°C (50°F) [RH = 94%]
Pressure (altimeter): 30.17 inches Hg (1021.8 mb)
Winds: calm
Visibility: 10 or more miles (16+ km)
Ceiling: at least 12,000 feet AGL
Clouds: sky clear below 12,000 feet AGL
Present Weather: automated observation with no human augmentation;
there may or may not be significant weather present at this time
KCGC 180355Z AUTO 00000KT 10SM CLR 11/10 A3017 RMK AO2

Conditions at: KCGC observed 18 November 2018  03:35 UTC
Temperature: 11.0°C (52°F)
Dewpoint: 10.0°C (50°F) [RH = 94%]
Pressure (altimeter): 30.17 inches Hg (1021.8 mb)
Winds: calm
Visibility: 10 or more miles (16+ km)
Ceiling: at least 12,000 feet AGL
Clouds: sky clear below 12,000 feet AGL
Present Weather: automated observation with no human augmentation;
there may or may not be significant weather present at this time
KCGC 180335Z AUTO 00000KT 10SM CLR 11/10 A3017 RMK AO2

Conditions at: KCGC observed 18 November 2018  03:15 UTC
Temperature: 11.0°C (52°F)
Dewpoint: 10.0°C (50°F) [RH = 94%]
Pressure (altimeter): 30.17 inches Hg (1021.8 mb)
Winds: calm
Visibility: 10 or more miles (16+ km)
Ceiling: at least 12,000 feet AGL
Clouds: sky clear below 12,000 feet AGL
Present Weather: automated observation with no human augmentation;
there may or may not be significant weather present at this time
KCGC 180315Z AUTO 00000KT 10SM CLR 11/10 A3017 RMK AO2

Conditions at: KCGC observed 18 November 2018  02:55 UTC
Temperature: 12.0°C (54°F)
Dewpoint: 10.0°C (50°F) [RH = 88%]
Pressure (altimeter): 30.17 inches Hg (1021.8 mb)
Winds: calm
Visibility: 10 or more miles (16+ km)
Ceiling: at least 12,000 feet AGL
Clouds: sky clear below 12,000 feet AGL
Present Weather: automated observation with no human augmentation;
there may or may not be significant weather present at this time
KCGC 180255Z AUTO 00000KT 10SM CLR 12/10 A3017 RMK AO2

Conditions at: KCGC observed 18 November 2018  02:35 UTC
Temperature: 12.0°C (54°F)
Dewpoint: 10.0°C (50°F) [RH = 88%]
Pressure (altimeter): 30.17 inches Hg (1021.8 mb)
Winds: calm
Visibility: 10 or more miles (16+ km)
Ceiling: at least 12,000 feet AGL
Clouds: sky clear below 12,000 feet AGL
Present Weather: automated observation with no human augmentation;
there may or may not be significant weather present at this time
KCGC 180235Z AUTO 00000KT 10SM CLR 12/10 A3017 RMK AO2

Conditions at: KCGC observed 18 November 2018  02:15 UTC
Temperature: 13.0°C (55°F)
Dewpoint: 10.0°C (50°F) [RH = 82%]
Pressure (altimeter): 30.18 inches Hg (1022.1 mb)
Winds: calm
Visibility: 10 or more miles (16+ km)
Ceiling: at least 12,000 feet AGL
Clouds: sky clear below 12,000 feet AGL
Present Weather: automated observation with no human augmentation;
there may or may not be significant weather present at this time
KCGC 180215Z AUTO 00000KT 10SM CLR 13/10 A3018 RMK AO2

Conditions at: KCGC observed 18 November 2018  01:55 UTC
Temperature: 12.0°C (54°F)
Dewpoint: 10.0°C (50°F) [RH = 88%]
Pressure (altimeter): 30.17 inches Hg (1021.8 mb)
Winds: calm
Visibility: 10 or more miles (16+ km)
Ceiling: at least 12,000 feet AGL
Clouds: sky clear below 12,000 feet AGL
Present Weather: automated observation with no human augmentation;
there may or may not be significant weather present at this time
KCGC 180155Z AUTO 00000KT 10SM CLR 12/10 A3017 RMK AO2

Conditions at: KCGC observed 18 November 2018  01:35 UTC
Temperature: 12.0°C (54°F)
Dewpoint: 10.0°C (50°F) [RH = 88%]
Pressure (altimeter): 30.17 inches Hg (1021.8 mb)
Winds: calm
Visibility: 10 or more miles (16+ km)
Ceiling: at least 12,000 feet AGL
Clouds: sky clear below 12,000 feet AGL
Present Weather: automated observation with no human augmentation;
there may or may not be significant weather present at this time
KCGC 180135Z AUTO 00000KT 10SM CLR 12/10 A3017 RMK AO2

Conditions at: KCGC observed 18 November 2018  01:15 UTC
Temperature: 12.0°C (54°F)
Dewpoint: 10.0°C (50°F) [RH = 88%]
Pressure (altimeter): 30.17 inches Hg (1021.8 mb)
Winds: calm
Visibility: 10 or more miles (16+ km)
Ceiling: at least 12,000 feet AGL
Clouds: sky clear below 12,000 feet AGL
Present Weather: automated observation with no human augmentation;
there may or may not be significant weather present at this time
KCGC 180115Z AUTO 00000KT 10SM CLR 12/10 A3017 RMK AO2

Conditions at: KCGC observed 18 November 2018  00:55 UTC
Temperature: 12.0°C (54°F)
Dewpoint: 11.0°C (52°F) [RH = 94%]
Pressure (altimeter): 30.16 inches Hg (1021.4 mb)
Winds: calm
Visibility: 10 or more miles (16+ km)
Ceiling: at least 12,000 feet AGL
Clouds: sky clear below 12,000 feet AGL
Present Weather: automated observation with no human augmentation;
there may or may not be significant weather present at this time
KCGC 180055Z AUTO 00000KT 10SM CLR 12/11 A3016 RMK AO2

Conditions at: KCGC observed 18 November 2018  00:35 UTC
Temperature: 13.0°C (55°F)
Dewpoint: 11.0°C (52°F) [RH = 88%]
Pressure (altimeter): 30.16 inches Hg (1021.4 mb)
Winds: calm
Visibility: 10 or more miles (16+ km)
Ceiling: at least 12,000 feet AGL
Clouds: sky clear below 12,000 feet AGL
Present Weather: automated observation with no human augmentation;
there may or may not be significant weather present at this time
KCGC 180035Z AUTO 00000KT 10SM CLR 13/11 A3016 RMK AO2

Conditions at: KCGC observed 18 November 2018  00:15 UTC
Temperature: 13.0°C (55°F)
Dewpoint: 11.0°C (52°F) [RH = 88%]
Pressure (altimeter): 30.15 inches Hg (1021.1 mb)
Winds: calm
Visibility: 10 or more miles (16+ km)
Ceiling: at least 12,000 feet AGL
Clouds: sky clear below 12,000 feet AGL
Present Weather: automated observation with no human augmentation;
there may or may not be significant weather present at this time
KCGC 180015Z AUTO 00000KT 10SM CLR 13/11 A3015 RMK AO2

Conditions at: KCGC observed 17 November 2018  23:55 UTC
Temperature: 13.0°C (55°F)
Dewpoint: 11.0°C (52°F) [RH = 88%]
Pressure (altimeter): 30.15 inches Hg (1021.1 mb)
Winds: calm
Visibility: 10 or more miles (16+ km)
Ceiling: at least 12,000 feet AGL
Clouds: sky clear below 12,000 feet AGL
Present Weather: automated observation with no human augmentation;
there may or may not be significant weather present at this time
KCGC 172355Z AUTO 00000KT 10SM CLR 13/11 A3015 RMK AO2

Conditions at: KCGC observed 17 November 2018  23:35 UTC
Temperature: 14.0°C (57°F)
Dewpoint: 11.0°C (52°F) [RH = 82%]
Pressure (altimeter): 30.16 inches Hg (1021.4 mb)
Winds: calm
Visibility: 10 or more miles (16+ km)
Ceiling: at least 12,000 feet AGL
Clouds: sky clear below 12,000 feet AGL
Present Weather: automated observation with no human augmentation;
there may or may not be significant weather present at this time
KCGC 172335Z AUTO 00000KT 10SM CLR 14/11 A3016 RMK AO2

Conditions at: KCGC observed 17 November 2018  23:15 UTC
Temperature: 15.0°C (59°F)
Dewpoint: 12.0°C (54°F) [RH = 82%]
Pressure (altimeter): 30.16 inches Hg (1021.4 mb)
Winds: calm
Visibility: 10 or more miles (16+ km)
Ceiling: at least 12,000 feet AGL
Clouds: sky clear below 12,000 feet AGL
Present Weather: automated observation with no human augmentation;
there may or may not be significant weather present at this time
KCGC 172315Z AUTO 00000KT 10SM CLR 15/12 A3016 RMK AO2

Conditions at: KCGC observed 17 November 2018  22:55 UTC
Temperature: 15.0°C (59°F)
Dewpoint: 11.0°C (52°F) [RH = 77%]
Pressure (altimeter): 30.16 inches Hg (1021.4 mb)
Winds: calm
Visibility: 10 or more miles (16+ km)
Ceiling: at least 12,000 feet AGL
Clouds: sky clear below 12,000 feet AGL
Present Weather: automated observation with no human augmentation;
there may or may not be significant weather present at this time
KCGC 172255Z AUTO 00000KT 10SM CLR 15/11 A3016 RMK AO2

Conditions at: KCGC observed 17 November 2018  22:35 UTC
Temperature: 17.0°C (63°F)
Dewpoint: 11.0°C (52°F) [RH = 68%]
Pressure (altimeter): 30.15 inches Hg (1021.1 mb)
Winds: calm
Visibility: 10 or more miles (16+ km)
Ceiling: at least 12,000 feet AGL
Clouds: sky clear below 12,000 feet AGL
Present Weather: automated observation with no human augmentation;
there may or may not be significant weather present at this time
KCGC 172235Z AUTO 00000KT 10SM CLR 17/11 A3015 RMK AO2

Conditions at: KCGC observed 17 November 2018  22:15 UTC
Temperature: 18.0°C (64°F)
Dewpoint: 10.0°C (50°F) [RH = 59%]
Pressure (altimeter): 30.15 inches Hg (1021.1 mb)
Winds: calm
Visibility: 10 or more miles (16+ km)
Ceiling: at least 12,000 feet AGL
Clouds: sky clear below 12,000 feet AGL
Present Weather: automated observation with no human augmentation;
there may or may not be significant weather present at this time
KCGC 172215Z AUTO 00000KT 10SM CLR 18/10 A3015 RMK AO2

Conditions at: KCGC observed 17 November 2018  21:55 UTC
Temperature: 21.0°C (70°F)
Dewpoint: 8.0°C (46°F) [RH = 43%]
Pressure (altimeter): 30.14 inches Hg (1020.7 mb)
Winds: calm
Visibility: 10 or more miles (16+ km)
Ceiling: at least 12,000 feet AGL
Clouds: sky clear below 12,000 feet AGL
Present Weather: automated observation with no human augmentation;
there may or may not be significant weather present at this time
KCGC 172155Z AUTO 00000KT 10SM CLR 21/08 A3014 RMK AO2

Conditions at: KCGC observed 17 November 2018  21:35 UTC
Temperature: 21.0°C (70°F)
Dewpoint: 7.0°C (45°F) [RH = 40%]
Pressure (altimeter): 30.14 inches Hg (1020.7 mb)
Winds: from the NE (50 degrees) at 3 MPH (3 knots; 1.6 m/s)
Visibility: 10 or more miles (16+ km)
Ceiling: at least 12,000 feet AGL
Clouds: sky clear below 12,000 feet AGL
Present Weather: automated observation with no human augmentation;
there may or may not be significant weather present at this time
KCGC 172135Z AUTO 05003KT 10SM CLR 21/07 A3014 RMK AO2

Conditions at: KCGC observed 17 November 2018  21:15 UTC
Temperature: 22.0°C (72°F)
Dewpoint: 7.0°C (45°F) [RH = 38%]
Pressure (altimeter): 30.14 inches Hg (1020.7 mb)
Winds: from the ENE (70 degrees) at 5 MPH (4 knots; 2.1 m/s)
Visibility: 10 or more miles (16+ km)
Ceiling: at least 12,000 feet AGL
Clouds: sky clear below 12,000 feet AGL
Present Weather: automated observation with no human augmentation;
there may or may not be significant weather present at this time
KCGC 172115Z AUTO 07004KT 10SM CLR 22/07 A3014 RMK AO2

Conditions at: KCGC observed 17 November 2018  20:55 UTC
Temperature: 22.0°C (72°F)
Dewpoint: 7.0°C (45°F) [RH = 38%]
Pressure (altimeter): 30.13 inches Hg (1020.4 mb)
Winds: from the NE (40 degrees) at 5 MPH (4 knots; 2.1 m/s)
Visibility: 10 or more miles (16+ km)
Ceiling: at least 12,000 feet AGL
Clouds: sky clear below 12,000 feet AGL
Present Weather: automated observation with no human augmentation;
there may or may not be significant weather present at this time
KCGC 172055Z AUTO 04004KT 10SM CLR 22/07 A3013 RMK AO2

Conditions at: KCGC observed 17 November 2018  20:35 UTC
Temperature: 22.0°C (72°F)
Dewpoint: 8.0°C (46°F) [RH = 41%]
Pressure (altimeter): 30.14 inches Hg (1020.7 mb)
Winds: from the ENE (60 degrees) at 5 MPH (4 knots; 2.1 m/s)
Visibility: 10 or more miles (16+ km)
Ceiling: at least 12,000 feet AGL
Clouds: sky clear below 12,000 feet AGL
Present Weather: automated observation with no human augmentation;
there may or may not be significant weather present at this time
KCGC 172035Z AUTO 06004KT 10SM CLR 22/08 A3014 RMK AO2

Conditions at: KCGC observed 17 November 2018  20:15 UTC
Temperature: 22.0°C (72°F)
Dewpoint: 8.0°C (46°F) [RH = 41%]
Pressure (altimeter): 30.13 inches Hg (1020.4 mb)
Winds: from the ENE (60 degrees) at 7 MPH (6 knots; 3.1 m/s)
Visibility: 10 or more miles (16+ km)
Ceiling: at least 12,000 feet AGL
Clouds: sky clear below 12,000 feet AGL
Present Weather: automated observation with no human augmentation;
there may or may not be significant weather present at this time
KCGC 172015Z AUTO 06006KT 10SM CLR 22/08 A3013 RMK AO2

Conditions at: KCGC observed 17 November 2018  19:55 UTC
Temperature: 22.0°C (72°F)
Dewpoint: 8.0°C (46°F) [RH = 41%]
Pressure (altimeter): 30.14 inches Hg (1020.7 mb)
Winds: from the ENE (70 degrees) at 7 MPH (6 knots; 3.1 m/s)
Visibility: 10 or more miles (16+ km)
Ceiling: at least 12,000 feet AGL
Clouds: sky clear below 12,000 feet AGL
Present Weather: automated observation with no human augmentation;
there may or may not be significant weather present at this time
KCGC 171955Z AUTO 07006KT 10SM CLR 22/08 A3014 RMK AO2

Conditions at: KCGC observed 17 November 2018  19:35 UTC
Temperature: 22.0°C (72°F)
Dewpoint: 8.0°C (46°F) [RH = 41%]
Pressure (altimeter): 30.14 inches Hg (1020.7 mb)
Winds: calm
Visibility: 10 or more miles (16+ km)
Ceiling: at least 12,000 feet AGL
Clouds: sky clear below 12,000 feet AGL
Present Weather: automated observation with no human augmentation;
there may or may not be significant weather present at this time
KCGC 171935Z AUTO 00000KT 10SM CLR 22/08 A3014 RMK AO2

Conditions at: KCGC observed 17 November 2018  19:15 UTC
Temperature: 22.0°C (72°F)
Dewpoint: 9.0°C (48°F) [RH = 43%]
Pressure (altimeter): 30.14 inches Hg (1020.7 mb)
Winds: from the E (80 degrees) at 8 MPH (7 knots; 3.6 m/s)
Visibility: 10 or more miles (16+ km)
Ceiling: at least 12,000 feet AGL
Clouds: sky clear below 12,000 feet AGL
Present Weather: automated observation with no human augmentation;
there may or may not be significant weather present at this time
KCGC 171915Z AUTO 08007KT 10SM CLR 22/09 A3014 RMK AO2

Conditions at: KCGC observed 17 November 2018  18:55 UTC
Temperature: 22.0°C (72°F)
Dewpoint: 9.0°C (48°F) [RH = 43%]
Pressure (altimeter): 30.14 inches Hg (1020.7 mb)
Winds: from the E (90 degrees) at 6 MPH (5 knots; 2.6 m/s)
Visibility: 10 or more miles (16+ km)
Ceiling: at least 12,000 feet AGL
Clouds: sky clear below 12,000 feet AGL
Present Weather: automated observation with no human augmentation;
there may or may not be significant weather present at this time
KCGC 171855Z AUTO 09005KT 10SM CLR 22/09 A3014 RMK AO2

Conditions at: KCGC observed 17 November 2018  18:35 UTC
Temperature: 21.0°C (70°F)
Dewpoint: 10.0°C (50°F) [RH = 49%]
Pressure (altimeter): 30.14 inches Hg (1020.7 mb)
Winds: from the E (100 degrees) at 7 MPH (6 knots; 3.1 m/s)
Visibility: 10 or more miles (16+ km)
Ceiling: at least 12,000 feet AGL
Clouds: sky clear below 12,000 feet AGL
Present Weather: automated observation with no human augmentation;
there may or may not be significant weather present at this time
KCGC 171835Z AUTO 10006KT 10SM CLR 21/10 A3014 RMK AO2

Conditions at: KCGC observed 17 November 2018  18:15 UTC
Temperature: 21.0°C (70°F)
Dewpoint: 10.0°C (50°F) [RH = 49%]
Pressure (altimeter): 30.15 inches Hg (1021.1 mb)
Winds: from the E (80 degrees) at 6 MPH (5 knots; 2.6 m/s)
Visibility: 10 or more miles (16+ km)
Ceiling: at least 12,000 feet AGL
Clouds: sky clear below 12,000 feet AGL
Present Weather: automated observation with no human augmentation;
there may or may not be significant weather present at this time
KCGC 171815Z AUTO 08005KT 10SM CLR 21/10 A3015 RMK AO2

Conditions at: KCGC observed 17 November 2018  17:55 UTC
Temperature: 21.0°C (70°F)
Dewpoint: 10.0°C (50°F) [RH = 49%]
Pressure (altimeter): 30.16 inches Hg (1021.4 mb)
Winds: from the ENE (60 degrees) at 9 MPH (8 knots; 4.2 m/s)
Visibility: 10 or more miles (16+ km)
Ceiling: at least 12,000 feet AGL
Clouds: sky clear below 12,000 feet AGL
Present Weather: automated observation with no human augmentation;
there may or may not be significant weather present at this time
KCGC 171755Z AUTO 06008KT 10SM CLR 21/10 A3016 RMK AO2

Conditions at: KCGC observed 17 November 2018  17:35 UTC
Temperature: 21.0°C (70°F)
Dewpoint: 10.0°C (50°F) [RH = 49%]
Pressure (altimeter): 30.17 inches Hg (1021.8 mb)
Winds: from the E (100 degrees) at 8 MPH (7 knots; 3.6 m/s)
Visibility: 10 or more miles (16+ km)
Ceiling: at least 12,000 feet AGL
Clouds: sky clear below 12,000 feet AGL
Present Weather: automated observation with no human augmentation;
there may or may not be significant weather present at this time
KCGC 171735Z AUTO 10007KT 10SM CLR 21/10 A3017 RMK AO2

Conditions at: KCGC observed 17 November 2018  17:15 UTC
Temperature: 20.0°C (68°F)
Dewpoint: 10.0°C (50°F) [RH = 53%]
Pressure (altimeter): 30.18 inches Hg (1022.1 mb)
Winds: from the E (90 degrees) at 8 MPH (7 knots; 3.6 m/s)
Visibility: 10 or more miles (16+ km)
Ceiling: at least 12,000 feet AGL
Clouds: sky clear below 12,000 feet AGL
Present Weather: automated observation with no human augmentation;
there may or may not be significant weather present at this time
KCGC 171715Z AUTO 09007KT 10SM CLR 20/10 A3018 RMK AO2

Conditions at: KCGC observed 17 November 2018  16:55 UTC
Temperature: 20.0°C (68°F)
Dewpoint: 11.0°C (52°F) [RH = 56%]
Pressure (altimeter): 30.20 inches Hg (1022.8 mb)
Winds: from the E (80 degrees) at 7 MPH (6 knots; 3.1 m/s)
Visibility: 10 or more miles (16+ km)
Ceiling: at least 12,000 feet AGL
Clouds: sky clear below 12,000 feet AGL
Present Weather: automated observation with no human augmentation;
there may or may not be significant weather present at this time
KCGC 171655Z AUTO 08006KT 10SM CLR 20/11 A3020 RMK AO2

Conditions at: KCGC observed 17 November 2018  16:35 UTC
Temperature: 19.0°C (66°F)
Dewpoint: 10.0°C (50°F) [RH = 56%]
Pressure (altimeter): 30.21 inches Hg (1023.1 mb)
Winds: from the ENE (60 degrees) at 6 MPH (5 knots; 2.6 m/s)
Visibility: 10 or more miles (16+ km)
Ceiling: at least 12,000 feet AGL
Clouds: sky clear below 12,000 feet AGL
Present Weather: automated observation with no human augmentation;
there may or may not be significant weather present at this time
KCGC 171635Z AUTO 06005KT 10SM CLR 19/10 A3021 RMK AO2

Conditions at: KCGC observed 17 November 2018  16:15 UTC
Temperature: 18.0°C (64°F)
Dewpoint: 10.0°C (50°F) [RH = 59%]
Pressure (altimeter): 30.21 inches Hg (1023.1 mb)
Winds: from the E (80 degrees) at 7 MPH (6 knots; 3.1 m/s)
Visibility: 10 or more miles (16+ km)
Ceiling: at least 12,000 feet AGL
Clouds: sky clear below 12,000 feet AGL
Present Weather: automated observation with no human augmentation;
there may or may not be significant weather present at this time
KCGC 171615Z AUTO 08006KT 10SM CLR 18/10 A3021 RMK AO2

Conditions at: KCGC observed 17 November 2018  15:55 UTC
Temperature: 18.0°C (64°F)
Dewpoint: 10.0°C (50°F) [RH = 59%]
Pressure (altimeter): 30.22 inches Hg (1023.5 mb)
Winds: from the ENE (60 degrees) at 6 MPH (5 knots; 2.6 m/s)
Visibility: 10 or more miles (16+ km)
Ceiling: at least 12,000 feet AGL
Clouds: sky clear below 12,000 feet AGL
Present Weather: automated observation with no human augmentation;
there may or may not be significant weather present at this time
KCGC 171555Z AUTO 06005KT 10SM CLR 18/10 A3022 RMK AO2

Conditions at: KCGC observed 17 November 2018  15:35 UTC
Temperature: 17.0°C (63°F)
Dewpoint: 9.0°C (48°F) [RH = 59%]
Pressure (altimeter): 30.22 inches Hg (1023.5 mb)
Winds: from the ENE (70 degrees) at 8 MPH (7 knots; 3.6 m/s)
Visibility: 10 or more miles (16+ km)
Ceiling: at least 12,000 feet AGL
Clouds: sky clear below 12,000 feet AGL
Present Weather: automated observation with no human augmentation;
there may or may not be significant weather present at this time
KCGC 171535Z AUTO 07007KT 10SM CLR 17/09 A3022 RMK AO2

Conditions at: KCGC observed 17 November 2018  15:15 UTC
Temperature: 16.0°C (61°F)
Dewpoint: 7.0°C (45°F) [RH = 55%]
Pressure (altimeter): 30.23 inches Hg (1023.8 mb)
Winds: from the E (80 degrees) at 6 MPH (5 knots; 2.6 m/s)
Visibility: 10 or more miles (16+ km)
Ceiling: at least 12,000 feet AGL
Clouds: sky clear below 12,000 feet AGL
Present Weather: automated observation with no human augmentation;
there may or may not be significant weather present at this time
KCGC 171515Z AUTO 08005KT 10SM CLR 16/07 A3023 RMK AO2

Conditions at: KCGC observed 17 November 2018  14:55 UTC
Temperature: 15.0°C (59°F)
Dewpoint: 6.0°C (43°F) [RH = 55%]
Pressure (altimeter): 30.24 inches Hg (1024.1 mb)
Winds: from the NE (50 degrees) at 5 MPH (4 knots; 2.1 m/s)
Visibility: 10 or more miles (16+ km)
Ceiling: at least 12,000 feet AGL
Clouds: sky clear below 12,000 feet AGL
Present Weather: automated observation with no human augmentation;
there may or may not be significant weather present at this time
KCGC 171455Z AUTO 05004KT 10SM CLR 15/06 A3024 RMK AO2

Conditions at: KCGC observed 17 November 2018  14:35 UTC
Temperature: 13.0°C (55°F)
Dewpoint: 6.0°C (43°F) [RH = 62%]
Pressure (altimeter): 30.24 inches Hg (1024.1 mb)
Winds: from the NNE (30 degrees) at 8 MPH (7 knots; 3.6 m/s)
Visibility: 10 or more miles (16+ km)
Ceiling: at least 12,000 feet AGL
Clouds: sky clear below 12,000 feet AGL
Present Weather: automated observation with no human augmentation;
there may or may not be significant weather present at this time
KCGC 171435Z AUTO 03007KT 10SM CLR 13/06 A3024 RMK AO2

Conditions at: KCGC observed 17 November 2018  14:15 UTC
Temperature: 12.0°C (54°F)
Dewpoint: 7.0°C (45°F) [RH = 71%]
Pressure (altimeter): 30.24 inches Hg (1024.1 mb)
Winds: from the NE (40 degrees) at 5 MPH (4 knots; 2.1 m/s)
Visibility: 10 or more miles (16+ km)
Ceiling: at least 12,000 feet AGL
Clouds: sky clear below 12,000 feet AGL
Present Weather: automated observation with no human augmentation;
there may or may not be significant weather present at this time
KCGC 171415Z AUTO 04004KT 10SM CLR 12/07 A3024 RMK AO2

Conditions at: KCGC observed 17 November 2018  13:55 UTC
Temperature: 11.0°C (52°F)
Dewpoint: 7.0°C (45°F) [RH = 76%]
Pressure (altimeter): 30.24 inches Hg (1024.1 mb)
Winds: from the NE (40 degrees) at 5 MPH (4 knots; 2.1 m/s)
Visibility: 10 or more miles (16+ km)
Ceiling: at least 12,000 feet AGL
Clouds: sky clear below 12,000 feet AGL
Present Weather: automated observation with no human augmentation;
there may or may not be significant weather present at this time
KCGC 171355Z AUTO 04004KT 10SM CLR 11/07 A3024 RMK AO2

Conditions at: KCGC observed 17 November 2018  13:35 UTC
Temperature: 10.0°C (50°F)
Dewpoint: 6.0°C (43°F) [RH = 76%]
Pressure (altimeter): 30.24 inches Hg (1024.1 mb)
Winds: calm
Visibility: 10 or more miles (16+ km)
Ceiling: at least 12,000 feet AGL
Clouds: sky clear below 12,000 feet AGL
Present Weather: automated observation with no human augmentation;
there may or may not be significant weather present at this time
KCGC 171335Z AUTO 00000KT 10SM CLR 10/06 A3024 RMK AO2

Conditions at: KCGC observed 17 November 2018  13:15 UTC
Temperature: 8.0°C (46°F)
Dewpoint: 5.0°C (41°F) [RH = 81%]
Pressure (altimeter): 30.24 inches Hg (1024.1 mb)
Winds: calm
Visibility: 10 or more miles (16+ km)
Ceiling: at least 12,000 feet AGL
Clouds: sky clear below 12,000 feet AGL
Present Weather: automated observation with no human augmentation;
there may or may not be significant weather present at this time
KCGC 171315Z AUTO 00000KT 10SM CLR 08/05 A3024 RMK AO2

Conditions at: KCGC observed 17 November 2018  12:55 UTC
Temperature: 6.0°C (43°F)
Dewpoint: 5.0°C (41°F) [RH = 93%]
Pressure (altimeter): 30.23 inches Hg (1023.8 mb)
Winds: calm
Visibility: 10 or more miles (16+ km)
Ceiling: at least 12,000 feet AGL
Clouds: sky clear below 12,000 feet AGL
Present Weather: automated observation with no human augmentation;
there may or may not be significant weather present at this time
KCGC 171255Z AUTO 00000KT 10SM CLR 06/05 A3023 RMK AO2

Conditions at: KCGC observed 17 November 2018  12:35 UTC
Temperature: 5.0°C (41°F)
Dewpoint: 4.0°C (39°F) [RH = 93%]
Pressure (altimeter): 30.22 inches Hg (1023.5 mb)
Winds: calm
Visibility: 10 or more miles (16+ km)
Ceiling: at least 12,000 feet AGL
Clouds: sky clear below 12,000 feet AGL
Present Weather: automated observation with no human augmentation;
there may or may not be significant weather present at this time
KCGC 171235Z AUTO 00000KT 10SM CLR 05/04 A3022 RMK AO2

Conditions at: KCGC observed 17 November 2018  12:15 UTC
Temperature: 4.0°C (39°F)
Dewpoint: 3.0°C (37°F) [RH = 93%]
Pressure (altimeter): 30.22 inches Hg (1023.5 mb)
Winds: calm
Visibility: 10 or more miles (16+ km)
Ceiling: at least 12,000 feet AGL
Clouds: sky clear below 12,000 feet AGL
Present Weather: automated observation with no human augmentation;
there may or may not be significant weather present at this time
KCGC 171215Z AUTO 00000KT 10SM CLR 04/03 A3022 RMK AO2

Conditions at: KCGC observed 17 November 2018  11:55 UTC
Temperature: 3.0°C (37°F)
Dewpoint: 3.0°C (37°F) [RH = 100%]
Pressure (altimeter): 30.21 inches Hg (1023.1 mb)
Winds: calm
Visibility: 10 or more miles (16+ km)
Ceiling: at least 12,000 feet AGL
Clouds: sky clear below 12,000 feet AGL
Present Weather: automated observation with no human augmentation;
there may or may not be significant weather present at this time
KCGC 171155Z AUTO 00000KT 10SM CLR 03/03 A3021 RMK AO2

Conditions at: KCGC observed 17 November 2018  11:35 UTC
Temperature: 3.0°C (37°F)
Dewpoint: 3.0°C (37°F) [RH = 100%]
Pressure (altimeter): 30.21 inches Hg (1023.1 mb)
Winds: calm
Visibility: 10 or more miles (16+ km)
Ceiling: at least 12,000 feet AGL
Clouds: sky clear below 12,000 feet AGL
Present Weather: automated observation with no human augmentation;
there may or may not be significant weather present at this time
KCGC 171135Z AUTO 00000KT 10SM CLR 03/03 A3021 RMK AO2